Time;durP1;ratioP1;P1;durP2;ratioP2;P2;SDS_P1;SDS_P2;PMS_P1;PMS_P2;Temp;Humidity;BMP_temperature;BMP_pressure;BME280_temperature;BME280_humidity;BME280_pressure;Samples;Min_cycle;Max_cycle;Signal;HPM_P1;HPM_P2
2023/12/22 00:01:46;;;;;;;20.52;3.13;;;6.70;99.90;;;;;;6191117;23;20021;-75
2023/12/22 00:04:13;;;;;;;12.95;3.65;;;6.60;99.90;;;;;;6187692;23;20035;-75
2023/12/22 00:06:40;;;;;;;15.82;4.20;;;6.50;99.90;;;;;;6190509;23;20008;-75
2023/12/22 00:09:11;;;;;;;25.83;3.63;;;6.50;99.90;;;;;;6190721;23;20059;-75
2023/12/22 00:11:37;;;;;;;16.35;3.00;;;6.50;99.90;;;;;;6190819;23;20025;-75
2023/12/22 00:14:02;;;;;;;22.27;4.18;;;6.50;99.90;;;;;;6190686;23;20043;-75
2023/12/22 00:16:28;;;;;;;26.25;4.90;;;6.70;99.90;;;;;;6190743;23;20016;-75
2023/12/22 00:18:54;;;;;;;20.58;4.45;;;6.70;99.90;;;;;;6217297;23;20024;-75
2023/12/22 00:21:20;;;;;;;25.00;5.47;;;6.80;99.90;;;;;;6217471;23;20083;-75
2023/12/22 00:23:48;;;;;;;12.63;2.92;;;6.70;99.90;;;;;;6217597;23;20309;-75
2023/12/22 00:26:15;;;;;;;23.60;3.78;;;6.30;99.90;;;;;;6217144;23;20068;-75
2023/12/22 00:28:41;;;;;;;15.82;4.55;;;6.20;99.90;;;;;;6190659;23;20021;-75
2023/12/22 00:31:07;;;;;;;18.17;3.08;;;6.20;99.90;;;;;;6190612;23;20463;-75
2023/12/22 00:33:33;;;;;;;23.98;4.72;;;6.20;99.90;;;;;;6190584;23;20024;-75
2023/12/22 00:35:58;;;;;;;15.98;3.50;;;6.30;99.90;;;;;;6217517;23;20084;-75
2023/12/22 00:38:24;;;;;;;21.80;4.78;;;6.40;99.90;;;;;;6190531;23;20317;-75
2023/12/22 00:40:49;;;;;;;23.02;4.03;;;6.50;99.90;;;;;;6190564;23;20017;-75
2023/12/22 00:43:15;;;;;;;21.02;3.45;;;6.60;99.90;;;;;;6190480;23;20024;-75
2023/12/22 00:45:41;;;;;;;26.63;4.80;;;6.60;99.90;;;;;;6190484;23;20455;-76
2023/12/22 00:48:06;;;;;;;18.88;3.75;;;6.60;99.90;;;;;;6190388;23;20024;-76
2023/12/22 00:50:32;;;;;;;22.67;4.05;;;6.60;99.90;;;;;;6217212;23;20013;-75
2023/12/22 00:52:57;;;;;;;17.15;4.18;;;6.60;99.90;;;;;;6190332;23;20028;-75
2023/12/22 00:55:23;;;;;;;23.90;3.58;;;6.70;99.90;;;;;;6190410;23;20021;-75
2023/12/22 00:57:49;;;;;;;25.60;5.00;;;6.70;99.90;;;;;;6216743;23;20016;-75
2023/12/22 01:00:15;;;;;;;25.63;4.57;;;6.80;99.90;;;;;;6190257;23;20079;-75
2023/12/22 01:02:47;;;;;;;28.92;5.65;;;6.90;99.90;;;;;;6190122;23;20017;-75
2023/12/22 01:05:12;;;;;;;23.85;3.58;;;6.90;99.90;;;;;;6190274;23;20048;-75
2023/12/22 01:07:38;;;;;;;38.38;6.60;;;7.00;99.90;;;;;;6190277;23;20071;-75
2023/12/22 01:10:05;;;;;;;28.92;5.40;;;7.10;99.90;;;;;;6190199;23;20016;-75
2023/12/22 01:12:30;;;;;;;27.20;4.97;;;7.00;99.90;;;;;;6190238;23;20059;-76
2023/12/22 01:14:57;;;;;;;21.70;4.03;;;7.10;99.90;;;;;;6190298;23;20028;-75
2023/12/22 01:17:23;;;;;;;28.05;5.05;;;7.00;99.90;;;;;;6189999;23;20012;-75
2023/12/22 01:19:51;;;;;;;37.05;5.13;;;7.00;99.90;;;;;;6190020;23;20023;-76
2023/12/22 01:22:20;;;;;;;25.02;6.22;;;7.00;99.90;;;;;;6189958;23;20016;-75
2023/12/22 01:24:45;;;;;;;39.17;4.97;;;7.00;99.90;;;;;;6190119;23;20015;-76
2023/12/22 01:27:11;;;;;;;16.65;3.05;;;7.00;99.90;;;;;;6189658;23;20025;-75
2023/12/22 01:29:37;;;;;;;13.02;2.17;;;6.90;99.90;;;;;;6216942;23;20075;-75
2023/12/22 01:32:07;;;;;;;8.90;1.73;;;6.80;99.90;;;;;;6189998;23;20024;-75
2023/12/22 01:34:32;;;;;;;18.73;4.35;;;6.70;99.90;;;;;;6190067;23;20111;-75
2023/12/22 01:36:58;;;;;;;19.58;3.40;;;6.60;99.90;;;;;;6189926;23;20385;-75
2023/12/22 01:39:23;;;;;;;23.50;3.42;;;6.60;99.90;;;;;;6189907;23;20016;-75
2023/12/22 01:41:49;;;;;;;16.45;3.90;;;6.60;99.90;;;;;;6189662;23;20016;-76
2023/12/22 01:44:15;;;;;;;31.40;3.72;;;6.60;99.90;;;;;;6189768;23;20020;-76
2023/12/22 01:46:40;;;;;;;22.20;3.85;;;6.70;99.90;;;;;;6189895;23;20013;-76
2023/12/22 01:49:08;;;;;;;22.95;3.85;;;6.70;99.90;;;;;;6189702;23;20029;-75
2023/12/22 01:51:35;;;;;;;20.95;2.85;;;6.80;99.90;;;;;;6189781;23;20444;-75
2023/12/22 01:54:01;;;;;;;18.70;2.60;;;6.90;99.90;;;;;;6189845;23;20017;-76
2023/12/22 01:56:29;;;;;;;24.50;3.33;;;7.00;99.90;;;;;;6189396;23;20501;-76
2023/12/22 01:59:01;;;;;;;15.90;3.22;;;7.00;99.90;;;;;;6189766;23;20150;-75
2023/12/22 02:01:37;;;;;;;13.13;2.42;;;6.80;99.90;;;;;;6189757;23;20013;-76
2023/12/22 02:04:05;;;;;;;19.17;2.83;;;6.60;99.90;;;;;;6189857;23;20024;-76
2023/12/22 02:06:35;;;;;;;13.45;2.78;;;6.40;99.90;;;;;;6189678;23;20084;-76
2023/12/22 02:09:01;;;;;;;13.60;2.40;;;6.30;99.90;;;;;;6216691;23;20055;-75
2023/12/22 02:11:27;;;;;;;17.20;4.13;;;6.30;99.90;;;;;;6189599;23;20088;-76
2023/12/22 02:13:52;;;;;;;17.25;2.88;;;6.30;99.90;;;;;;6189583;23;20051;-76
2023/12/22 02:16:37;;;;;;;23.52;4.10;;;6.30;99.90;;;;;;6189702;23;20019;-76
2023/12/22 02:19:18;;;;;;;17.85;2.90;;;6.40;99.90;;;;;;6216536;23;20017;-76
2023/12/22 02:22:06;;;;;;;21.25;3.63;;;6.40;99.90;;;;;;6189507;23;20336;-76
2023/12/22 02:24:32;;;;;;;20.63;5.07;;;6.50;99.90;;;;;;6189514;23;20028;-75
2023/12/22 02:27:34;;;;;;;19.67;3.05;;;6.50;99.90;;;;;;6189421;23;20009;-76
2023/12/22 02:30:07;;;;;;;20.27;3.60;;;6.60;99.90;;;;;;6189129;23;20068;-75
2023/12/22 02:32:39;;;;;;;20.88;4.63;;;6.70;99.90;;;;;;6189602;23;20027;-75
2023/12/22 02:35:11;;;;;;;18.80;3.38;;;6.80;99.90;;;;;;6189493;23;20016;-75
2023/12/22 02:37:40;;;;;;;30.98;3.75;;;6.80;99.90;;;;;;6189541;23;20021;-75
2023/12/22 02:40:08;;;;;;;18.08;3.72;;;6.90;99.90;;;;;;6189450;23;20344;-75
2023/12/22 02:42:35;;;;;;;23.20;5.32;;;6.90;99.90;;;;;;6189377;23;20069;-75
2023/12/22 02:45:01;;;;;;;16.55;4.47;;;6.90;99.90;;;;;;6189474;23;20456;-75
2023/12/22 02:47:27;;;;;;;23.63;3.15;;;6.70;99.90;;;;;;6189520;23;20048;-75
2023/12/22 02:49:54;;;;;;;10.00;1.33;;;6.60;99.90;;;;;;6189395;23;20047;-75
2023/12/22 02:52:19;;;;;;;13.18;2.20;;;6.30;99.90;;;;;;6189470;23;20020;-75
2023/12/22 02:54:47;;;;;;;21.08;2.90;;;6.30;99.90;;;;;;6189455;23;20024;-75
2023/12/22 02:57:13;;;;;;;14.32;2.83;;;6.20;99.90;;;;;;6189121;23;20095;-75
2023/12/22 02:59:40;;;;;;;18.33;2.78;;;6.20;99.90;;;;;;6189389;23;20453;-75
2023/12/22 03:02:06;;;;;;;20.58;3.70;;;6.30;99.90;;;;;;6188974;23;20016;-75
2023/12/22 03:04:32;;;;;;;24.08;4.78;;;6.30;99.90;;;;;;6189470;23;20020;-75
2023/12/22 03:06:57;;;;;;;20.65;4.70;;;6.30;99.90;;;;;;6189299;23;20031;-75
2023/12/22 03:09:23;;;;;;;16.45;3.95;;;6.40;99.90;;;;;;6189386;23;20348;-75
2023/12/22 03:11:49;;;;;;;33.78;5.07;;;6.50;99.90;;;;;;6189369;23;20075;-75
2023/12/22 03:14:14;;;;;;;16.98;3.92;;;6.60;99.90;;;;;;6189333;23;20462;-75
2023/12/22 03:16:52;;;;;;;23.17;4.50;;;6.60;99.90;;;;;;6189289;23;20074;-75
2023/12/22 03:19:18;;;;;;;15.23;3.25;;;6.70;99.90;;;;;;6189203;23;20456;-75
2023/12/22 03:21:44;;;;;;;21.42;4.35;;;6.80;99.90;;;;;;6189090;23;20009;-75
2023/12/22 03:24:09;;;;;;;14.45;2.75;;;6.80;99.90;;;;;;6189316;23;20059;-76
2023/12/22 03:26:35;;;;;;;11.82;3.05;;;6.80;99.90;;;;;;6189274;23;20340;-75
2023/12/22 03:29:00;;;;;;;16.70;2.50;;;6.70;99.90;;;;;;6189367;23;20024;-76
2023/12/22 03:31:26;;;;;;;29.83;4.32;;;6.70;99.90;;;;;;6189223;23;20079;-76
2023/12/22 03:33:52;;;;;;;24.73;3.88;;;6.60;99.90;;;;;;6189267;23;20028;-76
2023/12/22 03:36:17;;;;;;;18.90;3.63;;;6.60;99.90;;;;;;6189265;23;20017;-76
2023/12/22 03:38:43;;;;;;;17.65;3.20;;;6.70;99.90;;;;;;6189176;23;20025;-75
2023/12/22 03:41:08;;;;;;;10.30;2.75;;;6.70;99.90;;;;;;6189565;23;20016;-75
2023/12/22 03:43:34;;;;;;;23.40;3.72;;;6.70;99.90;;;;;;6190930;23;20056;-75
2023/12/22 03:46:00;;;;;;;25.08;4.63;;;6.70;99.90;;;;;;6191044;23;20084;-75
2023/12/22 03:48:25;;;;;;;41.08;5.70;;;6.80;99.90;;;;;;6191013;23;20016;-75
2023/12/22 03:50:51;;;;;;;25.48;3.83;;;6.90;99.90;;;;;;6217858;23;20017;-75
2023/12/22 03:53:16;;;;;;;17.13;3.83;;;6.90;99.90;;;;;;6191003;23;20021;-75
2023/12/22 03:55:42;;;;;;;21.25;4.40;;;6.90;99.90;;;;;;6190913;23;20051;-75
2023/12/22 03:58:08;;;;;;;12.82;3.17;;;7.00;99.90;;;;;;6190772;23;20051;-75
2023/12/22 04:00:34;;;;;;;20.45;4.47;;;7.10;99.90;;;;;;6190749;23;20031;-75
2023/12/22 04:03:00;;;;;;;15.43;3.65;;;7.20;99.90;;;;;;6190797;23;20023;-75
2023/12/22 04:05:28;;;;;;;21.05;3.78;;;7.20;99.90;;;;;;6191612;23;20044;-76
2023/12/22 04:07:53;;;;;;;14.27;2.75;;;7.20;99.90;;;;;;6190866;23;20028;-75
2023/12/22 04:10:19;;;;;;;13.57;2.50;;;7.20;99.90;;;;;;6190835;23;20051;-75
2023/12/22 04:12:45;;;;;;;21.08;3.83;;;7.30;99.90;;;;;;6190761;23;20071;-76
2023/12/22 04:15:10;;;;;;;14.52;3.25;;;7.30;99.90;;;;;;6190824;23;20317;-75
2023/12/22 04:17:39;;;;;;;15.23;3.92;;;7.30;99.90;;;;;;6191046;23;20020;-75
2023/12/22 04:20:06;;;;;;;23.13;3.88;;;7.30;99.90;;;;;;6190517;23;20059;-76
2023/12/22 04:22:32;;;;;;;23.35;3.35;;;7.30;99.90;;;;;;6190507;23;20467;-76
2023/12/22 04:24:57;;;;;;;18.35;4.25;;;7.30;99.90;;;;;;6190737;23;20020;-76
2023/12/22 04:27:23;;;;;;;30.48;4.25;;;7.30;99.90;;;;;;6190716;23;20498;-76
2023/12/22 04:29:48;;;;;;;13.77;2.92;;;7.40;99.90;;;;;;6190498;23;20020;-75
2023/12/22 04:32:14;;;;;;;21.95;4.32;;;7.40;99.90;;;;;;6217018;23;20040;-75
2023/12/22 04:34:40;;;;;;;27.73;4.55;;;7.40;99.90;;;;;;6217115;23;20048;-75
2023/12/22 04:37:05;;;;;;;23.30;4.40;;;7.30;99.90;;;;;;6190357;23;20020;-75
2023/12/22 04:39:31;;;;;;;16.83;2.35;;;7.40;99.90;;;;;;6190541;23;20444;-75
2023/12/22 04:41:56;;;;;;;23.52;3.00;;;7.40;99.90;;;;;;6217259;23;20424;-75
2023/12/22 04:44:22;;;;;;;26.45;4.25;;;7.30;99.90;;;;;;6190450;23;20020;-75
2023/12/22 04:46:48;;;;;;;14.90;3.08;;;7.40;99.90;;;;;;6190550;23;20337;-75
2023/12/22 04:49:13;;;;;;;19.10;2.95;;;7.40;99.90;;;;;;6190542;23;20103;-75
2023/12/22 04:51:39;;;;;;;15.40;3.30;;;7.40;99.90;;;;;;6190454;23;20021;-75
2023/12/22 04:54:04;;;;;;;24.45;5.00;;;7.50;99.90;;;;;;6189997;23;20428;-75
2023/12/22 04:56:33;;;;;;;25.42;4.32;;;7.40;99.90;;;;;;6190197;23;20071;-75
2023/12/22 04:58:59;;;;;;;11.82;3.00;;;7.50;99.90;;;;;;6189260;23;20032;-75
2023/12/22 05:01:24;;;;;;;20.35;3.75;;;7.50;99.90;;;;;;6190340;23;20015;-76
2023/12/22 05:03:50;;;;;;;16.23;3.25;;;7.50;99.90;;;;;;6190308;23;20095;-75
2023/12/22 05:06:16;;;;;;;11.32;2.22;;;7.50;99.90;;;;;;6190209;23;20013;-75
2023/12/22 05:08:41;;;;;;;13.35;3.08;;;7.50;99.90;;;;;;6190365;23;20021;-75
2023/12/22 05:11:07;;;;;;;22.02;4.32;;;7.50;99.90;;;;;;6190353;23;20012;-75
2023/12/22 05:13:33;;;;;;;13.43;2.72;;;7.50;99.90;;;;;;6190180;23;20336;-75
2023/12/22 05:15:58;;;;;;;15.50;3.20;;;7.50;99.90;;;;;;6190241;23;20020;-75
2023/12/22 05:18:25;;;;;;;19.13;3.63;;;7.50;99.90;;;;;;6189971;23;20020;-75
2023/12/22 05:20:53;;;;;;;25.92;3.97;;;7.50;99.90;;;;;;6190088;23;20039;-75
2023/12/22 05:23:18;;;;;;;16.42;3.80;;;7.50;99.90;;;;;;6189928;23;20021;-75
2023/12/22 05:25:44;;;;;;;13.73;2.92;;;7.60;99.90;;;;;;6190128;23;20021;-75
2023/12/22 05:28:09;;;;;;;25.30;4.57;;;7.50;99.90;;;;;;6190047;23;20392;-75
2023/12/22 05:30:35;;;;;;;21.58;3.25;;;7.60;99.90;;;;;;6216632;23;20023;-75
2023/12/22 05:33:01;;;;;;;24.75;4.35;;;7.60;99.90;;;;;;6190068;23;20340;-75
2023/12/22 05:35:26;;;;;;;22.75;4.65;;;7.60;99.90;;;;;;6190021;23;20503;-75
2023/12/22 05:37:52;;;;;;;17.92;4.30;;;7.60;99.90;;;;;;6190428;23;20013;-75
2023/12/22 05:40:17;;;;;;;16.88;3.72;;;7.60;99.90;;;;;;6190030;23;20025;-75
2023/12/22 05:42:43;;;;;;;18.42;3.10;;;7.60;99.90;;;;;;6189860;23;20563;-76
2023/12/22 05:45:11;;;;;;;19.05;3.15;;;7.60;99.90;;;;;;6189905;23;20321;-75
2023/12/22 05:47:36;;;;;;;28.98;4.75;;;7.60;99.90;;;;;;6216748;23;20012;-75
2023/12/22 05:50:05;;;;;;;14.20;4.32;;;7.60;99.90;;;;;;6189671;23;20016;-75
2023/12/22 05:52:31;;;;;;;22.92;2.97;;;7.60;99.90;;;;;;6189824;23;20021;-76
2023/12/22 05:54:57;;;;;;;10.55;2.47;;;7.60;99.90;;;;;;6189907;23;20052;-75
2023/12/22 05:57:26;;;;;;;18.77;3.55;;;7.70;99.90;;;;;;6216102;23;20534;-75
2023/12/22 05:59:54;;;;;;;16.83;3.35;;;7.70;99.90;;;;;;6189731;23;20017;-75
2023/12/22 06:02:20;;;;;;;12.15;2.35;;;7.70;99.90;;;;;;6189554;23;20024;-75
2023/12/22 06:04:45;;;;;;;10.50;2.90;;;7.70;99.90;;;;;;6189694;23;20013;-75
2023/12/22 06:07:11;;;;;;;17.85;3.00;;;7.70;99.90;;;;;;6189679;23;20021;-75
2023/12/22 06:09:37;;;;;;;21.48;4.03;;;7.70;99.90;;;;;;6189721;23;20020;-75
2023/12/22 06:12:08;;;;;;;15.25;2.78;;;7.70;99.90;;;;;;6189738;23;20021;-75
2023/12/22 06:14:37;;;;;;;16.52;3.47;;;7.70;99.90;;;;;;6189598;23;20021;-75
2023/12/22 06:17:02;;;;;;;23.92;3.60;;;7.80;99.90;;;;;;6189676;23;20013;-75
2023/12/22 06:19:30;;;;;;;17.17;2.90;;;7.70;99.90;;;;;;6189662;23;20016;-76
2023/12/22 06:21:57;;;;;;;17.13;2.60;;;7.80;99.90;;;;;;6189537;23;20016;-75
2023/12/22 06:24:23;;;;;;;13.43;2.22;;;7.70;99.90;;;;;;6189556;23;20020;-75
2023/12/22 06:26:48;;;;;;;15.48;1.95;;;7.50;99.90;;;;;;6189507;23;20023;-75
2023/12/22 06:29:15;;;;;;;16.33;2.55;;;7.30;99.90;;;;;;6189441;23;20017;-75
2023/12/22 06:31:41;;;;;;;14.48;2.88;;;7.10;99.90;;;;;;6189612;23;20111;-75
2023/12/22 06:34:06;;;;;;;26.85;3.08;;;7.00;99.90;;;;;;6190275;23;20044;-75
2023/12/22 06:36:32;;;;;;;22.35;3.65;;;7.10;99.90;;;;;;6189428;23;20023;-75
2023/12/22 06:38:58;;;;;;;19.15;3.42;;;7.10;99.90;;;;;;6189515;23;20064;-76
2023/12/22 06:41:27;;;;;;;21.67;3.42;;;7.20;99.90;;;;;;6189549;23;20476;-75
2023/12/22 06:43:53;;;;;;;26.98;3.97;;;7.20;99.90;;;;;;6189228;23;20027;-75
2023/12/22 06:46:23;;;;;;;24.30;2.80;;;7.30;99.90;;;;;;6189902;23;20051;-75
2023/12/22 06:48:49;;;;;;;24.13;3.80;;;7.30;99.90;;;;;;6189330;23;20024;-75
2023/12/22 06:51:35;;;;;;;19.17;3.42;;;7.30;99.90;;;;;;6189420;23;20017;-75
2023/12/22 06:54:02;;;;;;;16.92;2.75;;;7.40;99.90;;;;;;6189418;23;20020;-75
2023/12/22 06:56:30;;;;;;;12.65;2.63;;;7.40;99.90;;;;;;6189078;23;20092;-76
2023/12/22 06:58:57;;;;;;;14.77;3.78;;;7.40;99.90;;;;;;6189287;23;20420;-75
2023/12/22 07:01:33;;;;;;;19.95;3.50;;;7.50;99.90;;;;;;6189311;23;20016;-75
2023/12/22 07:04:00;;;;;;;21.60;3.22;;;7.40;99.90;;;;;;6189332;23;20048;-75
2023/12/22 07:06:29;;;;;;;19.13;3.63;;;7.30;99.90;;;;;;6189335;23;20013;-75
2023/12/22 07:09:14;;;;;;;14.25;2.42;;;7.10;99.90;;;;;;6189308;23;20084;-75
2023/12/22 07:11:46;;;;;;;23.15;3.60;;;7.00;99.90;;;;;;6189217;23;20017;-75
2023/12/22 07:14:15;;;;;;;29.75;5.75;;;7.00;99.90;;;;;;6215699;23;20021;-75
2023/12/22 07:16:42;;;;;;;25.75;5.93;;;6.90;99.90;;;;;;6190065;23;20463;-75
2023/12/22 07:19:08;;;;;;;23.13;4.38;;;6.90;99.90;;;;;;6217797;23;20067;-75
2023/12/22 07:21:33;;;;;;;34.22;5.65;;;6.80;99.90;;;;;;6217606;23;20336;-75
2023/12/22 07:24:00;;;;;;;26.73;4.30;;;6.80;99.90;;;;;;6191198;23;20484;-75
2023/12/22 07:26:29;;;;;;;24.85;4.05;;;6.80;99.90;;;;;;6191193;23;20079;-75
2023/12/22 07:28:58;;;;;;;13.25;2.58;;;6.90;99.90;;;;;;6191160;23;20380;-75
2023/12/22 07:31:24;;;;;;;12.05;2.05;;;7.00;99.90;;;;;;6217649;23;20459;-75
2023/12/22 07:33:50;;;;;;;18.52;2.42;;;7.10;99.90;;;;;;6191163;23;20024;-76
2023/12/22 07:36:18;;;;;;;19.45;2.78;;;7.30;99.90;;;;;;6191121;23;20036;-76
2023/12/22 07:38:43;;;;;;;38.13;6.05;;;7.40;99.90;;;;;;6191168;23;20016;-76
2023/12/22 07:41:10;;;;;;;24.23;5.32;;;7.40;99.90;;;;;;6191197;23;20067;-75
2023/12/22 07:43:36;;;;;;;23.58;4.30;;;7.40;99.90;;;;;;6190919;23;20020;-76
2023/12/22 07:46:01;;;;;;;26.02;4.47;;;7.40;99.90;;;;;;6191114;23;20019;-76
2023/12/22 07:48:28;;;;;;;24.35;4.70;;;7.40;99.90;;;;;;6191101;23;20020;-76
2023/12/22 07:50:53;;;;;;;17.50;3.03;;;7.30;99.90;;;;;;6190966;23;20016;-76
2023/12/22 07:53:19;;;;;;;19.77;3.03;;;7.30;99.90;;;;;;6190944;23;20344;-76
2023/12/22 07:55:48;;;;;;;15.20;2.83;;;7.30;99.90;;;;;;6190926;23;20012;-76
2023/12/22 07:58:15;;;;;;;15.77;3.20;;;7.30;99.90;;;;;;6190722;23;20017;-76
2023/12/22 08:00:40;;;;;;;21.40;2.03;;;7.40;99.90;;;;;;6218116;23;20444;-76
2023/12/22 08:03:06;;;;;;;11.13;2.17;;;7.50;99.90;;;;;;6190221;23;20103;-76
2023/12/22 08:05:33;;;;;;;11.63;2.50;;;7.50;99.90;;;;;;6190781;23;20052;-76
2023/12/22 08:07:59;;;;;;;13.20;2.22;;;7.40;99.90;;;;;;6190771;23;20020;-76
2023/12/22 08:10:24;;;;;;;16.33;2.88;;;7.40;99.90;;;;;;6190753;23;20059;-75
2023/12/22 08:12:50;;;;;;;12.43;2.05;;;7.20;99.90;;;;;;6217614;23;20095;-76
2023/12/22 08:15:15;;;;;;;17.63;3.17;;;7.20;99.90;;;;;;6190749;23;20063;-76
2023/12/22 08:17:48;;;;;;;22.63;3.40;;;7.20;99.90;;;;;;6216661;23;20345;-76
2023/12/22 08:20:29;;;;;;;;;;;7.20;99.90;;;;;;6217264;23;20024;-75
2023/12/22 08:22:55;;;;;;;10.95;1.98;;;7.10;99.90;;;;;;6217298;23;19930;-75
2023/12/22 08:25:24;;;;;;;22.10;2.55;;;7.20;99.90;;;;;;6190207;23;20092;-75
2023/12/22 08:27:50;;;;;;;22.15;3.72;;;7.10;99.90;;;;;;6189726;23;20023;-75
2023/12/22 08:30:15;;;;;;;14.65;2.53;;;7.10;99.90;;;;;;6190272;23;20044;-75
2023/12/22 08:32:41;;;;;;;19.77;4.18;;;7.20;99.90;;;;;;6190288;23;20017;-76
2023/12/22 08:35:07;;;;;;;16.40;3.30;;;7.20;99.90;;;;;;6190551;23;20069;-75
2023/12/22 08:37:32;;;;;;;27.83;5.07;;;7.20;99.90;;;;;;6190298;23;20028;-76
2023/12/22 08:39:58;;;;;;;19.33;2.97;;;7.30;99.90;;;;;;6190217;23;20052;-79
2023/12/22 08:42:25;;;;;;;17.55;3.70;;;7.20;99.90;;;;;;6215456;23;20099;-76
2023/12/22 08:44:51;;;;;;;25.80;4.05;;;7.30;99.90;;;;;;6216206;23;20071;-76
2023/12/22 08:47:16;;;;;;;13.68;3.90;;;7.20;99.90;;;;;;6216093;23;20316;-75
2023/12/22 08:49:42;;;;;;;18.42;3.10;;;7.30;99.90;;;;;;6189122;23;20044;-77
2023/12/22 08:52:10;;;;;;;21.88;3.25;;;7.30;99.90;;;;;;6190075;23;20057;-77
2023/12/22 08:54:36;;;;;;;24.88;4.03;;;7.30;99.90;;;;;;6215917;23;20017;-77
2023/12/22 08:57:02;;;;;;;21.65;3.67;;;7.30;99.90;;;;;;6189691;23;20071;-77
2023/12/22 08:59:28;;;;;;;14.35;2.88;;;7.40;99.90;;;;;;6189936;23;20083;-77
2023/12/22 09:01:54;;;;;;;16.90;2.67;;;7.40;99.90;;;;;;6188871;23;20017;-76
2023/12/22 09:04:22;;;;;;;9.75;2.47;;;7.40;99.90;;;;;;6189993;23;20016;-76
2023/12/22 09:06:51;;;;;;;25.05;3.22;;;7.50;99.90;;;;;;6189859;23;20020;-76
2023/12/22 09:09:16;;;;;;;23.25;3.35;;;7.50;99.90;;;;;;6189823;23;20025;-76
2023/12/22 09:11:42;;;;;;;15.57;2.85;;;7.60;99.90;;;;;;6216481;23;20036;-77
2023/12/22 09:14:11;;;;;;;21.02;2.58;;;7.60;99.90;;;;;;6216507;23;20051;-77
2023/12/22 09:16:37;;;;;;;17.92;3.83;;;7.60;99.90;;;;;;6189703;23;20064;-76
2023/12/22 09:19:03;;;;;;;21.75;3.42;;;7.60;99.90;;;;;;6189798;23;20063;-76
2023/12/22 09:21:29;;;;;;;22.02;4.15;;;7.60;99.90;;;;;;6189800;23;20020;-76
2023/12/22 09:23:55;;;;;;;23.42;4.00;;;7.70;99.90;;;;;;6189644;23;20370;-76
2023/12/22 09:26:21;;;;;;;20.42;3.05;;;7.70;99.90;;;;;;6189682;23;20016;-76
2023/12/22 09:28:47;;;;;;;25.58;4.07;;;7.70;99.90;;;;;;6216273;23;20017;-76
2023/12/22 09:31:12;;;;;;;28.85;5.05;;;7.60;99.90;;;;;;6189720;23;20498;-76
2023/12/22 09:33:40;;;;;;;24.85;3.22;;;7.60;99.90;;;;;;6189672;23;20467;-77
2023/12/22 09:36:06;;;;;;;17.58;2.20;;;7.60;99.90;;;;;;6189583;23;20026;-76
2023/12/22 09:38:31;;;;;;;12.68;2.30;;;7.60;99.90;;;;;;6189509;23;20075;-76
2023/12/22 09:40:58;;;;;;;12.23;2.85;;;7.70;99.90;;;;;;6189480;23;20389;-76
2023/12/22 09:43:23;;;;;;;14.90;1.80;;;7.70;99.90;;;;;;6189484;23;20035;-76
2023/12/22 09:45:50;;;;;;;15.10;2.05;;;7.70;99.90;;;;;;6189579;23;20016;-77
2023/12/22 09:48:17;;;;;;;20.58;2.67;;;7.70;99.90;;;;;;6189475;23;20027;-77
2023/12/22 09:50:47;;;;;;;16.70;2.55;;;7.80;99.90;;;;;;6189548;23;20016;-76
2023/12/22 09:53:16;;;;;;;12.60;2.67;;;7.80;99.90;;;;;;6216455;23;20016;-76
2023/12/22 09:55:45;;;;;;;43.70;4.18;;;7.80;99.90;;;;;;6189516;23;20087;-77
2023/12/22 09:58:16;;;;;;;16.08;2.53;;;7.80;99.90;;;;;;6189289;23;20349;-77
2023/12/22 10:00:43;;;;;;;14.75;3.03;;;7.80;99.90;;;;;;6216032;23;20448;-77
2023/12/22 10:03:12;;;;;;;21.48;3.53;;;7.90;99.90;;;;;;6189201;23;20020;-77
2023/12/22 10:05:39;;;;;;;18.17;3.40;;;7.80;99.90;;;;;;6189299;23;20071;-77
2023/12/22 10:08:06;;;;;;;19.15;2.70;;;7.80;99.90;;;;;;6215740;23;20348;-76
2023/12/22 10:10:32;;;;;;;18.20;2.88;;;7.80;99.90;;;;;;6189260;23;20451;-76
2023/12/22 10:12:59;;;;;;;14.43;3.22;;;7.90;99.90;;;;;;6189129;23;20022;-76
2023/12/22 10:15:26;;;;;;;21.85;2.72;;;7.90;99.90;;;;;;6189353;23;20375;-76
2023/12/22 10:17:53;;;;;;;20.92;2.58;;;7.90;99.90;;;;;;6189248;23;20027;-76
2023/12/22 10:20:19;;;;;;;18.13;3.00;;;7.90;99.90;;;;;;6189256;23;20020;-77
2023/12/22 10:22:46;;;;;;;22.88;3.15;;;8.00;99.90;;;;;;6189089;23;20032;-76
2023/12/22 10:25:16;;;;;;;10.35;2.00;;;8.00;99.90;;;;;;6189300;23;20019;-76
2023/12/22 10:27:42;;;;;;;17.42;2.75;;;8.00;99.90;;;;;;6189270;23;20020;-75
2023/12/22 10:30:10;;;;;;;19.40;3.20;;;8.00;99.90;;;;;;6189268;23;20017;-76
2023/12/22 10:32:41;;;;;;;13.65;2.70;;;8.00;99.90;;;;;;6189022;23;20507;-76
2023/12/22 10:35:08;;;;;;;16.67;2.90;;;8.10;99.90;;;;;;6216226;23;20013;-76
2023/12/22 10:37:34;;;;;;;22.38;4.40;;;8.10;99.90;;;;;;6216055;23;20008;-76
2023/12/22 10:39:59;;;;;;;20.52;2.65;;;8.10;99.90;;;;;;6188833;23;20099;-76
2023/12/22 10:42:26;;;;;;;17.90;2.05;;;8.10;99.90;;;;;;6188881;23;20110;-76
2023/12/22 10:44:53;;;;;;;15.57;2.88;;;8.20;99.90;;;;;;6189018;23;20020;-76
2023/12/22 10:47:18;;;;;;;14.75;2.33;;;8.20;99.90;;;;;;6189152;23;20020;-76
2023/12/22 10:49:46;;;;;;;14.13;2.20;;;8.20;99.90;;;;;;6189008;23;20044;-76
2023/12/22 10:52:17;;;;;;;10.20;1.90;;;8.10;99.90;;;;;;6188628;23;20016;-76
2023/12/22 10:54:42;;;;;;;16.55;2.10;;;8.20;99.90;;;;;;6189179;23;20021;-77
2023/12/22 10:57:11;;;;;;;21.65;3.58;;;8.20;99.90;;;;;;6188877;23;20024;-76
2023/12/22 10:59:45;;;;;;;22.50;3.95;;;8.20;99.90;;;;;;6188936;23;20025;-76
2023/12/22 11:02:16;;;;;;;14.07;3.00;;;8.20;99.90;;;;;;6188944;23;20019;-76
2023/12/22 11:04:53;;;;;;;21.23;3.72;;;8.20;99.90;;;;;;6215777;23;20017;-76
2023/12/22 11:07:24;;;;;;;20.10;2.83;;;8.30;99.90;;;;;;6189229;23;20091;-75
2023/12/22 11:09:53;;;;;;;15.35;2.72;;;8.20;99.90;;;;;;6215854;23;20056;-76
2023/12/22 11:12:20;;;;;;;18.60;2.88;;;8.20;99.90;;;;;;6188614;23;20048;-77
2023/12/22 11:14:50;;;;;;;19.45;2.83;;;8.20;99.90;;;;;;6189056;23;20017;-76
2023/12/22 11:17:20;;;;;;;21.13;2.75;;;8.30;99.90;;;;;;6189172;23;20016;-76
2023/12/22 11:19:50;;;;;;;19.27;2.15;;;8.30;99.90;;;;;;6189208;23;20016;-76
2023/12/22 11:22:21;;;;;;;16.52;2.50;;;8.30;99.90;;;;;;6189113;23;20020;-76
2023/12/22 11:24:48;;;;;;;18.88;2.67;;;8.20;99.90;;;;;;6189175;23;20025;-76
2023/12/22 11:27:18;;;;;;;12.73;2.25;;;8.20;99.90;;;;;;6189005;23;20347;-76
2023/12/22 11:29:51;;;;;;;17.13;2.20;;;8.20;99.90;;;;;;6189121;23;20017;-76
2023/12/22 11:32:18;;;;;;;16.75;3.60;;;8.30;99.90;;;;;;6189170;23;20016;-76
2023/12/22 11:34:46;;;;;;;17.60;2.42;;;8.20;99.90;;;;;;6215651;23;20322;-76
2023/12/22 11:37:13;;;;;;;11.82;1.85;;;8.20;99.90;;;;;;6215934;23;20013;-76
2023/12/22 11:39:40;;;;;;;17.38;2.53;;;8.20;99.90;;;;;;6189025;23;20147;-76
2023/12/22 11:42:16;;;;;;;15.95;2.42;;;8.20;99.90;;;;;;6215837;23;20020;-76
2023/12/22 11:44:43;;;;;;;14.68;2.50;;;8.30;99.90;;;;;;6189356;23;20460;-76
2023/12/22 11:47:10;;;;;;;18.65;3.38;;;8.30;99.90;;;;;;6215559;23;20040;-76
2023/12/22 11:49:37;;;;;;;13.07;1.65;;;8.30;99.90;;;;;;6189083;23;20013;-76
2023/12/22 11:52:16;;;;;;;16.98;2.33;;;8.20;99.90;;;;;;6189140;23;20008;-76
2023/12/22 11:54:56;;;;;;;14.50;2.60;;;8.20;99.90;;;;;;6215838;23;20009;-76
2023/12/22 11:57:31;;;;;;;14.45;2.33;;;8.30;99.90;;;;;;6188869;23;20028;-76
2023/12/22 12:00:01;;;;;;;13.48;2.20;;;8.30;99.90;;;;;;6215453;23;20029;-76
2023/12/22 12:02:27;;;;;;;14.77;2.95;;;8.30;99.90;;;;;;6189491;23;20341;-76
2023/12/22 12:04:56;;;;;;;19.27;2.90;;;8.30;99.90;;;;;;6190867;23;20021;-76
2023/12/22 12:07:44;;;;;;;21.80;3.45;;;8.30;99.90;;;;;;6217433;23;20407;-76
2023/12/22 12:10:12;;;;;;;16.23;1.90;;;8.20;99.90;;;;;;6190682;23;20052;-76
2023/12/22 12:12:38;;;;;;;18.13;1.95;;;8.20;99.90;;;;;;6191110;23;20471;-76
2023/12/22 12:15:23;;;;;;;11.48;1.85;;;8.30;99.90;;;;;;6190536;23;20016;-76
2023/12/22 12:17:50;;;;;;;24.80;3.25;;;8.30;99.90;;;;;;6190732;23;20099;-77
2023/12/22 12:20:16;;;;;;;13.50;2.22;;;8.20;99.90;;;;;;6217454;23;20016;-76
2023/12/22 12:22:43;;;;;;;13.25;2.70;;;8.20;99.90;;;;;;6190437;23;20107;-76
2023/12/22 12:25:10;;;;;;;7.80;1.23;;;8.30;99.90;;;;;;6217489;23;20087;-77
2023/12/22 12:27:38;;;;;;;9.77;2.28;;;8.30;99.90;;;;;;6217270;23;20020;-76
2023/12/22 12:30:13;;;;;;;12.38;1.60;;;8.30;99.90;;;;;;6217108;23;20437;-76
2023/12/22 12:32:46;;;;;;;8.10;1.30;;;8.30;99.90;;;;;;6190442;23;20028;-76
2023/12/22 12:35:12;;;;;;;12.50;1.95;;;8.20;99.90;;;;;;6190390;23;20459;-77
2023/12/22 12:37:39;;;;;;;16.65;1.98;;;8.20;99.90;;;;;;6190600;23;20039;-76
2023/12/22 12:40:08;;;;;;;9.18;2.03;;;8.10;99.90;;;;;;6190174;23;20024;-76
2023/12/22 12:42:36;;;;;;;14.68;2.33;;;8.10;99.90;;;;;;6217246;23;20013;-76
2023/12/22 12:45:04;;;;;;;14.10;4.38;;;8.10;99.90;;;;;;6190397;23;20048;-76
2023/12/22 12:47:30;;;;;;;12.77;1.65;;;8.10;99.90;;;;;;6216770;23;20017;-77
2023/12/22 12:50:02;;;;;;;12.98;1.65;;;8.10;99.90;;;;;;6190199;23;20021;-76